Pagrindinis puslapis
METAR-TAF:

METAR-TAF

Oro uostai :

Resifė, Pernambuco, Brazilija

platuma: 08-08S, ilguma: 034-55W, Aukštis: 19 m

Dabartinis oras

Ataskaita buvo paskelbta 1 valandą ir 8 minutes, ne 00:00 UTC
Vėjas 7 kt iš Pietryčių
Temperatūra 26°C
Drėgmė 89%
Slėgis 1016 hPa
Matomumas 10 km arba daugiau
Išsisklaidę debesys ne aukštis 2500 ft
Liūtis kaimynystėje

METAR: SBRF 050000Z 14007KT 9999 VCSH SCT025 26/24 Q1016

Laikas: 22:08 (01:08 UTC)

Prognozė

Ataskaita buvo paskelbta 4 valandos ir 8 minutes, ne 21:00 UTC
Prognozė galioja nuo 05 metu 00 UTC su 06 metu 00 UTC
Vėjas 9 kt iš Pietų/Pietryčių
Matomumas 10 km arba daugiau
Išsisklaidę debesys ne aukštis 2500 ft
Tapsmas
nuo 05 metu 00 UTC su 05 metu 02 UTC
Matomumas: 8000 m
Su prošvaistėmis ne aukštis 1500 ft
Tapsmas
nuo 05 metu 12 UTC su 05 metu 14 UTC
Matomumas 10 km arba daugiau
Išsisklaidę debesys ne aukštis 2500 ft

TAF: SBRF 042100Z 0500/0600 15009KT 9999 SCT025 TN23/0508Z TX30/0517Z BECMG 0500/0502 8000 BKN015 BECMG 0512/0514 9999 NSW SCT025 RMK PER

Orai ataskaitas ir orų prognozės (METAR, TAF).

turimą stotys yra geltonos ir raudonos taškus žemėlapyje.

Perkelti pele per norėdami pamatyti stoties vardą.

Tada spustelėkite, norėdami matyti oro stebėjimo ir prognozės.

Norėdami pakeisti žemėlapį: spustelėkite ant žalios mygtukų su juodo kryžiaus žemyn,; žalią mygtuką su brūkšneliu, jei norite nutolinti; arba žalių rodyklių gretimoms žemėlapius.


METAR-TAF: